Time;durP1;ratioP1;P1;durP2;ratioP2;P2;SDS_P1;SDS_P2;PMS_P1;PMS_P2;Temp;Humidity;BMP_temperature;BMP_pressure;BME280_temperature;BME280_humidity;BME280_pressure;Samples;Min_cycle;Max_cycle;Signal;HPM_P1;HPM_P2
2021/08/10 00:01:00;;;;;;;9.65;2.80;;;;;;;;;;5090418;28;20341;-66
2021/08/10 00:03:25;;;;;;;6.73;3.03;;;;;;;;;;5090422;28;20520;-66
2021/08/10 00:05:51;;;;;;;8.53;2.83;;;;;;;;;;5090490;28;20269;-66
2021/08/10 00:08:17;;;;;;;7.22;2.90;;;;;;;;;;5090569;28;20316;-66
2021/08/10 00:10:44;;;;;;;11.52;2.85;;;;;;;;;;5090454;28;20415;-66
2021/08/10 00:13:09;;;;;;;8.52;2.17;;;;;;;;;;5088794;28;20040;-65
2021/08/10 00:15:34;;;;;;;7.97;2.63;;;;;;;;;;5089898;28;20032;-66
2021/08/10 00:17:59;;;;;;;6.73;2.50;;;;;;;;;;5090231;28;20032;-66
2021/08/10 00:20:25;;;;;;;4.43;2.75;;;;;;;;;;5089844;28;20325;-66
2021/08/10 00:22:52;;;;;;;4.07;2.33;;;;;;;;;;5090346;28;20432;-66
2021/08/10 00:25:17;;;;;;;7.90;3.05;;;;;;;;;;5089840;28;20188;-66
2021/08/10 00:27:42;;;;;;;7.27;3.30;;;;;;;;;;5072275;28;20463;-66
2021/08/10 00:30:07;;;;;;;11.43;3.13;;;;;;;;;;5090019;28;20274;-65
2021/08/10 00:32:32;;;;;;;8.65;3.17;;;;;;;;;;5089724;28;20266;-66
2021/08/10 00:34:58;;;;;;;9.23;3.03;;;;;;;;;;5063855;28;20401;-66
2021/08/10 00:37:23;;;;;;;10.63;3.47;;;;;;;;;;5087677;28;20299;-65
2021/08/10 00:39:48;;;;;;;8.37;2.80;;;;;;;;;;5090236;28;20262;-66
2021/08/10 00:42:13;;;;;;;9.07;3.53;;;;;;;;;;5089460;28;20302;-66
2021/08/10 00:44:38;;;;;;;7.82;3.03;;;;;;;;;;5089649;28;20024;-66
2021/08/10 00:47:04;;;;;;;5.97;3.25;;;;;;;;;;5089027;28;20016;-65
2021/08/10 00:49:29;;;;;;;7.95;3.30;;;;;;;;;;5089922;28;20024;-66
2021/08/10 00:51:54;;;;;;;6.68;3.00;;;;;;;;;;5089475;28;20488;-66
2021/08/10 00:54:20;;;;;;;11.70;3.03;;;;;;;;;;5091410;28;20444;-66
2021/08/10 00:56:45;;;;;;;8.63;3.10;;;;;;;;;;5092211;28;20270;-66
2021/08/10 00:59:10;;;;;;;7.00;3.30;;;;;;;;;;5094080;28;20435;-65
2021/08/10 01:01:35;;;;;;;7.57;2.83;;;;;;;;;;5094604;28;20122;-66
2021/08/10 01:04:01;;;;;;;10.15;3.40;;;;;;;;;;5093403;28;20265;-65
2021/08/10 01:06:32;;;;;;;4.75;2.58;;;;;;;;;;5093357;28;20507;-66
2021/08/10 01:09:06;;;;;;;11.25;3.47;;;;;;;;;;5093759;28;20016;-66
2021/08/10 01:11:36;;;;;;;9.05;2.65;;;;;;;;;;5093573;28;20028;-65
2021/08/10 01:14:14;;;;;;;12.95;3.50;;;;;;;;;;5093353;28;20031;-66
2021/08/10 01:16:47;;;;;;;13.90;3.55;;;;;;;;;;5093700;28;20090;-65
2021/08/10 01:19:30;;;;;;;10.02;3.28;;;;;;;;;;5093924;28;20020;-65
2021/08/10 01:21:57;;;;;;;10.13;2.90;;;;;;;;;;5093545;28;20012;-66
2021/08/10 01:24:26;;;;;;;6.30;3.00;;;;;;;;;;5093482;28;20343;-66
2021/08/10 01:27:06;;;;;;;5.38;2.70;;;;;;;;;;5093220;28;20012;-65
2021/08/10 01:29:50;;;;;;;5.18;2.72;;;;;;;;;;5106511;28;20031;-66
2021/08/10 01:32:15;;;;;;;5.72;3.13;;;;;;;;;;5097197;28;20028;-65
2021/08/10 01:34:41;;;;;;;9.80;3.50;;;;;;;;;;5092857;28;20023;-66
2021/08/10 01:37:12;;;;;;;5.38;3.05;;;;;;;;;;5093142;28;20790;-65
2021/08/10 01:39:37;;;;;;;8.73;3.22;;;;;;;;;;5092298;28;20024;-66
2021/08/10 01:42:03;;;;;;;4.78;3.10;;;;;;;;;;5092686;28;20026;-66
2021/08/10 01:44:29;;;;;;;9.05;3.10;;;;;;;;;;5092690;28;20072;-66
2021/08/10 01:46:55;;;;;;;7.65;3.00;;;;;;;;;;5093249;28;20031;-66
2021/08/10 01:49:23;;;;;;;10.68;3.70;;;;;;;;;;5092348;28;20016;-66
2021/08/10 01:51:49;;;;;;;7.97;2.72;;;;;;;;;;5092505;28;20081;-65
2021/08/10 01:54:15;;;;;;;13.57;2.95;;;;;;;;;;5092523;28;20027;-65
2021/08/10 01:56:40;;;;;;;10.63;3.00;;;;;;;;;;5093080;28;20381;-66
2021/08/10 01:59:06;;;;;;;5.72;2.45;;;;;;;;;;5092861;28;20024;-66
2021/08/10 02:01:32;;;;;;;9.95;2.45;;;;;;;;;;5092889;28;20111;-66
2021/08/10 02:03:58;;;;;;;9.18;2.53;;;;;;;;;;5092513;28;20079;-65
2021/08/10 02:06:24;;;;;;;7.70;2.72;;;;;;;;;;5091803;28;20050;-66
2021/08/10 02:08:51;;;;;;;6.47;2.65;;;;;;;;;;5092371;28;20143;-65
2021/08/10 02:11:17;;;;;;;7.25;2.55;;;;;;;;;;5093031;28;20384;-65
2021/08/10 02:13:42;;;;;;;6.60;3.40;;;;;;;;;;5091839;28;20144;-65
2021/08/10 02:16:08;;;;;;;13.45;3.45;;;;;;;;;;5091846;28;20511;-66
2021/08/10 02:18:33;;;;;;;6.30;2.78;;;;;;;;;;5092565;28;20052;-66
2021/08/10 02:21:00;;;;;;;9.10;2.63;;;;;;;;;;5092637;28;20473;-66
2021/08/10 02:23:25;;;;;;;6.05;2.97;;;;;;;;;;5092243;28;20465;-65
2021/08/10 02:25:52;;;;;;;13.02;3.10;;;;;;;;;;5092215;28;20031;-66
2021/08/10 02:28:17;;;;;;;6.50;2.80;;;;;;;;;;5091500;28;20107;-65
2021/08/10 02:30:49;;;;;;;8.93;3.25;;;;;;;;;;5092593;28;20119;-66
2021/08/10 02:33:16;;;;;;;4.72;2.63;;;;;;;;;;5092177;28;20023;-66
2021/08/10 02:35:41;;;;;;;5.38;3.03;;;;;;;;;;5091589;28;20038;-66
2021/08/10 02:38:08;;;;;;;5.45;2.60;;;;;;;;;;5091752;28;20019;-66
2021/08/10 02:40:34;;;;;;;7.10;3.67;;;;;;;;;;5091680;28;20069;-66
2021/08/10 02:43:00;;;;;;;9.45;3.22;;;;;;;;;;5091391;28;20507;-66
2021/08/10 02:45:26;;;;;;;8.50;3.15;;;;;;;;;;5090819;28;20210;-66
2021/08/10 02:47:55;;;;;;;5.82;2.95;;;;;;;;;;5091432;28;20062;-66
2021/08/10 02:50:21;;;;;;;8.35;3.30;;;;;;;;;;5091848;28;20411;-66
2021/08/10 02:52:46;;;;;;;5.53;2.70;;;;;;;;;;5091201;28;20031;-66
2021/08/10 02:55:11;;;;;;;8.60;2.80;;;;;;;;;;5090723;28;20545;-68
2021/08/10 02:57:55;;;;;;;6.47;2.85;;;;;;;;;;5090791;28;20620;-66
2021/08/10 03:00:21;;;;;;;4.57;3.00;;;;;;;;;;5091005;28;20385;-67
2021/08/10 03:02:48;;;;;;;8.07;3.65;;;;;;;;;;5091042;28;20046;-67
2021/08/10 03:05:21;;;;;;;10.90;2.88;;;;;;;;;;5091221;28;20016;-66
2021/08/10 03:07:48;;;;;;;9.80;2.75;;;;;;;;;;5091404;28;20474;-66
2021/08/10 03:10:14;;;;;;;12.02;3.13;;;;;;;;;;5090032;28;20024;-66
2021/08/10 03:12:41;;;;;;;11.55;2.72;;;;;;;;;;5090649;28;20596;-66
2021/08/10 03:15:06;;;;;;;6.75;3.13;;;;;;;;;;5091294;28;20561;-66
2021/08/10 03:17:38;;;;;;;6.30;2.95;;;;;;;;;;5090079;28;20103;-67
2021/08/10 03:20:04;;;;;;;9.77;2.92;;;;;;;;;;5091051;28;20020;-66
2021/08/10 03:22:31;;;;;;;11.63;4.05;;;;;;;;;;5090301;28;20156;-67
2021/08/10 03:24:57;;;;;;;16.70;4.43;;;;;;;;;;5090596;28;20020;-66
2021/08/10 03:27:23;;;;;;;4.53;2.05;;;;;;;;;;5090715;28;20478;-66
2021/08/10 03:29:48;;;;;;;21.35;5.13;;;;;;;;;;5090944;28;20026;-66
2021/08/10 03:32:14;;;;;;;8.70;4.53;;;;;;;;;;5089895;28;20028;-66
2021/08/10 03:34:40;;;;;;;11.55;5.00;;;;;;;;;;5090260;28;20371;-66
2021/08/10 03:37:05;;;;;;;12.02;4.75;;;;;;;;;;5090896;28;20462;-67
2021/08/10 03:39:31;;;;;;;12.50;4.88;;;;;;;;;;5090361;28;20110;-66
2021/08/10 03:41:56;;;;;;;12.20;4.93;;;;;;;;;;5090360;28;20020;-67
2021/08/10 03:44:22;;;;;;;17.00;4.88;;;;;;;;;;5090534;28;20024;-66
2021/08/10 03:46:48;;;;;;;10.23;4.68;;;;;;;;;;5089935;28;20026;-66
2021/08/10 03:49:14;;;;;;;10.70;3.83;;;;;;;;;;5090131;28;20099;-66
2021/08/10 03:51:39;;;;;;;15.88;4.88;;;;;;;;;;5090613;28;20029;-66
2021/08/10 03:54:05;;;;;;;13.60;4.55;;;;;;;;;;5090072;28;20537;-67
2021/08/10 03:56:30;;;;;;;9.50;4.97;;;;;;;;;;5090568;28;20095;-67
2021/08/10 03:58:56;;;;;;;7.20;3.90;;;;;;;;;;5088756;28;20028;-66
2021/08/10 04:01:23;;;;;;;11.07;4.13;;;;;;;;;;5089977;28;20032;-67
2021/08/10 04:03:48;;;;;;;10.02;4.32;;;;;;;;;;5090276;28;20039;-66
2021/08/10 04:06:14;;;;;;;11.07;3.83;;;;;;;;;;5090184;28;20024;-66
2021/08/10 04:08:39;;;;;;;7.25;3.78;;;;;;;;;;5089104;28;20031;-67
2021/08/10 04:11:05;;;;;;;14.98;4.45;;;;;;;;;;5090783;28;20035;-66
2021/08/10 04:13:31;;;;;;;9.40;3.95;;;;;;;;;;5089416;28;20113;-66
2021/08/10 04:15:59;;;;;;;8.85;4.40;;;;;;;;;;5090120;28;20472;-66
2021/08/10 04:18:24;;;;;;;15.93;6.40;;;;;;;;;;5089848;28;20385;-66
2021/08/10 04:20:50;;;;;;;9.93;3.40;;;;;;;;;;5089647;28;20020;-67
2021/08/10 04:23:16;;;;;;;12.57;4.65;;;;;;;;;;5087916;28;20034;-67
2021/08/10 04:25:41;;;;;;;15.23;4.72;;;;;;;;;;5089976;28;20024;-66
2021/08/10 04:28:06;;;;;;;13.60;5.38;;;;;;;;;;5090438;28;20056;-66
2021/08/10 04:30:31;;;;;;;11.27;4.17;;;;;;;;;;5089489;28;20375;-66
2021/08/10 04:32:57;;;;;;;15.17;4.40;;;;;;;;;;5087904;28;20255;-66
2021/08/10 04:35:22;;;;;;;10.40;5.18;;;;;;;;;;5089406;28;20357;-67
2021/08/10 04:37:47;;;;;;;10.73;4.85;;;;;;;;;;5081483;28;20114;-66
2021/08/10 04:40:13;;;;;;;8.68;4.05;;;;;;;;;;5090407;28;20462;-66
2021/08/10 04:42:38;;;;;;;9.80;4.18;;;;;;;;;;5089730;28;20370;-68
2021/08/10 04:45:04;;;;;;;17.55;5.05;;;;;;;;;;5089775;28;20050;-66
2021/08/10 04:47:29;;;;;;;14.38;5.15;;;;;;;;;;5089396;28;20069;-67
2021/08/10 04:49:54;;;;;;;11.57;4.83;;;;;;;;;;5089589;28;20077;-66
2021/08/10 04:52:21;;;;;;;13.50;5.13;;;;;;;;;;5089673;28;20779;-66
2021/08/10 04:54:47;;;;;;;10.45;4.75;;;;;;;;;;5089420;28;20280;-67
2021/08/10 04:57:12;;;;;;;14.00;4.70;;;;;;;;;;5089642;28;20028;-66
2021/08/10 04:59:37;;;;;;;12.10;4.80;;;;;;;;;;5089619;28;20109;-66
2021/08/10 05:02:02;;;;;;;7.40;3.80;;;;;;;;;;5088878;28;20307;-66
2021/08/10 05:04:27;;;;;;;8.10;3.40;;;;;;;;;;5089827;28;20261;-67
2021/08/10 05:06:54;;;;;;;11.53;4.40;;;;;;;;;;5089195;28;20025;-66
2021/08/10 05:09:19;;;;;;;13.75;4.53;;;;;;;;;;5089945;28;20763;-66
2021/08/10 05:11:44;;;;;;;8.35;4.03;;;;;;;;;;5089401;28;20310;-66
2021/08/10 05:14:10;;;;;;;8.73;4.30;;;;;;;;;;5089226;28;20023;-66
2021/08/10 05:16:35;;;;;;;10.23;4.30;;;;;;;;;;5089244;28;20255;-67
2021/08/10 05:19:00;;;;;;;10.20;4.13;;;;;;;;;;5092687;28;20339;-66
2021/08/10 05:21:25;;;;;;;9.00;4.05;;;;;;;;;;5089720;28;20266;-66
2021/08/10 05:23:51;;;;;;;17.23;5.18;;;;;;;;;;5089521;28;20529;-66
2021/08/10 05:26:17;;;;;;;8.38;4.97;;;;;;;;;;5089527;28;20111;-66
2021/08/10 05:28:42;;;;;;;6.97;3.38;;;;;;;;;;5088721;28;20107;-66
2021/08/10 05:31:07;;;;;;;9.37;4.20;;;;;;;;;;5089784;28;20485;-66
2021/08/10 05:33:33;;;;;;;11.65;4.35;;;;;;;;;;5088409;28;20300;-67
2021/08/10 05:35:58;;;;;;;10.23;4.55;;;;;;;;;;5078873;28;20492;-67
2021/08/10 05:38:23;;;;;;;9.43;3.50;;;;;;;;;;5086557;28;20028;-66
2021/08/10 05:40:48;;;;;;;9.87;3.83;;;;;;;;;;5087960;28;20028;-66
2021/08/10 05:43:13;;;;;;;13.57;5.28;;;;;;;;;;5090192;28;20333;-66
2021/08/10 05:45:39;;;;;;;7.63;3.07;;;;;;;;;;5093396;28;20020;-66
2021/08/10 05:48:04;;;;;;;9.77;3.92;;;;;;;;;;5089693;28;20361;-66
2021/08/10 05:50:29;;;;;;;7.93;4.65;;;;;;;;;;5090193;28;20465;-66
2021/08/10 05:52:54;;;;;;;13.80;5.00;;;;;;;;;;5090545;28;20055;-67
2021/08/10 05:55:20;;;;;;;13.40;4.03;;;;;;;;;;5090226;28;20266;-66
2021/08/10 05:57:45;;;;;;;15.20;4.93;;;;;;;;;;5083888;28;20047;-66
2021/08/10 06:00:10;;;;;;;18.93;3.73;;;;;;;;;;5090600;28;20077;-66
2021/08/10 06:02:36;;;;;;;13.15;3.83;;;;;;;;;;5089599;28;20254;-66
2021/08/10 06:05:02;;;;;;;13.38;4.45;;;;;;;;;;5088200;28;20020;-65
2021/08/10 06:07:27;;;;;;;10.02;3.97;;;;;;;;;;5087329;28;20031;-68
2021/08/10 06:09:52;;;;;;;11.77;4.23;;;;;;;;;;5087062;28;20034;-66
2021/08/10 06:12:17;;;;;;;14.40;3.97;;;;;;;;;;5088030;28;20647;-66
2021/08/10 06:14:43;;;;;;;15.20;5.00;;;;;;;;;;5091940;28;20026;-66
2021/08/10 06:17:08;;;;;;;8.48;4.65;;;;;;;;;;5091595;28;20673;-66
2021/08/10 06:19:33;;;;;;;8.38;4.28;;;;;;;;;;5099610;28;20433;-66
2021/08/10 06:21:59;;;;;;;11.95;4.53;;;;;;;;;;5091696;28;20107;-68
2021/08/10 06:24:27;;;;;;;10.70;4.40;;;;;;;;;;5090649;28;20024;-66
2021/08/10 06:26:52;;;;;;;9.50;2.95;;;;;;;;;;5086678;28;20020;-67
2021/08/10 06:29:17;;;;;;;11.97;5.40;;;;;;;;;;5090941;28;20388;-67
2021/08/10 06:31:42;;;;;;;14.27;3.63;;;;;;;;;;5091715;28;20269;-67
2021/08/10 06:34:08;;;;;;;10.10;3.17;;;;;;;;;;5091796;28;20032;-68
2021/08/10 06:36:33;;;;;;;13.00;3.60;;;;;;;;;;5091648;28;20270;-67
2021/08/10 06:38:58;;;;;;;6.82;3.05;;;;;;;;;;5089797;28;20385;-68
2021/08/10 06:41:23;;;;;;;8.90;3.63;;;;;;;;;;5083216;28;20016;-68
2021/08/10 06:43:49;;;;;;;7.25;3.28;;;;;;;;;;5091469;28;20735;-66
2021/08/10 06:46:14;;;;;;;13.80;3.70;;;;;;;;;;5091420;28;20023;-68
2021/08/10 06:48:39;;;;;;;9.23;3.17;;;;;;;;;;5088026;28;20274;-66
2021/08/10 06:51:04;;;;;;;8.27;2.87;;;;;;;;;;5090529;28;20288;-66
2021/08/10 06:53:29;;;;;;;7.30;2.67;;;;;;;;;;5089682;28;20627;-66
2021/08/10 06:55:55;;;;;;;12.63;2.85;;;;;;;;;;5089699;28;20024;-67
2021/08/10 06:58:20;;;;;;;8.88;2.15;;;;;;;;;;5091649;28;20066;-66
2021/08/10 07:00:45;;;;;;;3.33;2.10;;;;;;;;;;5091982;28;20037;-66
2021/08/10 07:03:10;;;;;;;5.47;1.23;;;;;;;;;;5091148;28;20786;-66
2021/08/10 07:05:36;;;;;;;5.22;2.55;;;;;;;;;;5091650;28;20260;-66
2021/08/10 07:08:01;;;;;;;7.03;2.70;;;;;;;;;;5091436;28;20022;-67
2021/08/10 07:10:26;;;;;;;7.00;2.70;;;;;;;;;;5091063;28;20035;-66
2021/08/10 07:12:51;;;;;;;6.20;2.72;;;;;;;;;;5090886;28;20262;-66
2021/08/10 07:15:17;;;;;;;6.85;2.45;;;;;;;;;;5091012;28;20024;-66
2021/08/10 07:17:42;;;;;;;6.65;3.05;;;;;;;;;;5090962;28;20027;-67
2021/08/10 07:20:07;;;;;;;8.23;2.55;;;;;;;;;;5086213;28;20615;-66
2021/08/10 07:22:32;;;;;;;8.35;3.25;;;;;;;;;;5090564;28;20027;-67
2021/08/10 07:24:58;;;;;;;6.87;2.80;;;;;;;;;;5091437;28;20035;-68
2021/08/10 07:27:23;;;;;;;9.00;2.70;;;;;;;;;;5083920;28;20266;-67
2021/08/10 07:29:48;;;;;;;6.32;2.47;;;;;;;;;;5090991;28;20478;-67
2021/08/10 07:32:13;;;;;;;5.67;3.10;;;;;;;;;;5090664;28;20020;-67
2021/08/10 07:34:38;;;;;;;7.18;3.60;;;;;;;;;;5090198;28;20269;-67
2021/08/10 07:37:04;;;;;;;5.83;2.40;;;;;;;;;;5090399;28;20024;-67
2021/08/10 07:39:29;;;;;;;6.77;2.80;;;;;;;;;;5090297;28;20341;-67
2021/08/10 07:41:54;;;;;;;5.45;2.17;;;;;;;;;;5090399;28;20296;-67
2021/08/10 07:44:19;;;;;;;8.50;2.77;;;;;;;;;;5090816;28;20020;-66
2021/08/10 07:46:45;;;;;;;4.97;2.23;;;;;;;;;;5091061;28;20250;-67
2021/08/10 07:49:10;;;;;;;6.90;2.53;;;;;;;;;;5090825;28;20294;-67
2021/08/10 07:51:35;;;;;;;11.35;3.22;;;;;;;;;;5079874;28;20039;-67
2021/08/10 07:54:00;;;;;;;7.75;3.28;;;;;;;;;;5084149;28;20020;-66
2021/08/10 07:56:25;;;;;;;7.95;2.78;;;;;;;;;;5087530;28;20040;-67
2021/08/10 07:58:51;;;;;;;8.13;3.90;;;;;;;;;;5090082;28;20036;-68
2021/08/10 08:01:16;;;;;;;9.10;3.58;;;;;;;;;;5100000;28;20261;-67
2021/08/10 08:03:41;;;;;;;13.17;3.30;;;;;;;;;;5095578;28;21734;-67
2021/08/10 08:06:06;;;;;;;4.60;1.80;;;;;;;;;;5090723;28;20249;-67
2021/08/10 08:08:31;;;;;;;7.15;3.20;;;;;;;;;;5088747;28;20090;-67
2021/08/10 08:10:57;;;;;;;8.82;3.10;;;;;;;;;;5090492;28;20027;-67
2021/08/10 08:13:24;;;;;;;10.82;3.00;;;;;;;;;;5090072;28;20028;-67
2021/08/10 08:15:49;;;;;;;9.77;2.78;;;;;;;;;;5090237;28;20024;-66
2021/08/10 08:18:14;;;;;;;20.00;2.67;;;;;;;;;;5090209;28;20028;-66
2021/08/10 08:20:39;;;;;;;8.15;3.28;;;;;;;;;;5090348;28;20385;-68
2021/08/10 08:23:05;;;;;;;13.17;3.43;;;;;;;;;;5087197;28;20091;-66
2021/08/10 08:25:30;;;;;;;9.30;4.10;;;;;;;;;;5089402;28;20281;-67
2021/08/10 08:27:55;;;;;;;5.95;3.03;;;;;;;;;;5090286;28;20091;-67
2021/08/10 08:30:20;;;;;;;7.03;2.93;;;;;;;;;;5090245;28;20325;-66
2021/08/10 08:32:46;;;;;;;13.93;3.00;;;;;;;;;;5089608;28;20258;-67
2021/08/10 08:35:11;;;;;;;10.38;3.65;;;;;;;;;;5115200;22;20031;-66
2021/08/10 08:37:37;;;;;;;11.45;3.60;;;;;;;;;;5107480;28;20078;-66
2021/08/10 08:40:03;;;;;;;11.00;3.38;;;;;;;;;;5096021;28;20381;-65
2021/08/10 08:42:29;;;;;;;6.60;2.85;;;;;;;;;;5094580;28;20016;-66
2021/08/10 08:44:54;;;;;;;7.68;3.50;;;;;;;;;;5099622;28;20355;-66
2021/08/10 08:47:21;;;;;;;6.20;3.30;;;;;;;;;;5097276;28;20469;-66
2021/08/10 08:49:47;;;;;;;13.35;4.43;;;;;;;;;;5110091;28;20681;-65
2021/08/10 08:52:13;;;;;;;8.45;4.00;;;;;;;;;;5109865;28;20023;-66
2021/08/10 08:54:38;;;;;;;6.97;3.55;;;;;;;;;;5108082;28;20488;-66
2021/08/10 08:57:04;;;;;;;7.18;3.70;;;;;;;;;;5109854;28;20020;-66
2021/08/10 08:59:29;;;;;;;10.00;3.70;;;;;;;;;;5105832;28;20411;-65
2021/08/10 09:01:54;;;;;;;9.40;3.10;;;;;;;;;;5106548;28;20058;-66
2021/08/10 09:04:20;;;;;;;13.43;3.55;;;;;;;;;;5110279;28;20019;-66
2021/08/10 09:06:45;;;;;;;10.93;3.70;;;;;;;;;;5091170;28;20042;-67
2021/08/10 09:09:23;;;;;;;15.82;4.60;;;;;;;;;;5109760;28;20032;-66
2021/08/10 09:11:49;;;;;;;6.57;2.58;;;;;;;;;;5109281;28;20516;-66
2021/08/10 09:14:14;;;;;;;11.02;3.25;;;;;;;;;;5109806;28;20480;-66
2021/08/10 09:16:42;;;;;;;5.33;2.57;;;;;;;;;;5111747;28;20073;-65
2021/08/10 09:19:07;;;;;;;7.95;2.90;;;;;;;;;;5113769;28;20289;-66
2021/08/10 09:21:33;;;;;;;8.57;3.45;;;;;;;;;;5113583;28;20594;-66
2021/08/10 09:23:59;;;;;;;12.00;3.55;;;;;;;;;;5113278;28;20016;-66
2021/08/10 09:26:30;;;;;;;6.60;3.15;;;;;;;;;;5111405;28;20028;-66
2021/08/10 09:28:56;;;;;;;7.10;3.33;;;;;;;;;;5107710;28;20019;-66
2021/08/10 09:31:28;;;;;;;6.60;3.60;;;;;;;;;;5112934;28;20019;-66
2021/08/10 09:33:55;;;;;;;5.70;2.97;;;;;;;;;;5113189;28;20027;-66
2021/08/10 09:36:20;;;;;;;9.60;3.30;;;;;;;;;;5113386;28;20148;-66
2021/08/10 09:38:47;;;;;;;10.10;3.28;;;;;;;;;;5094570;28;20035;-66
2021/08/10 09:41:12;;;;;;;12.52;4.63;;;;;;;;;;5113016;28;20015;-66
2021/08/10 09:43:39;;;;;;;9.27;4.77;;;;;;;;;;5108039;28;20012;-67
2021/08/10 09:46:14;;;;;;;9.80;4.65;;;;;;;;;;5112835;28;20262;-67
2021/08/10 09:48:49;;;;;;;7.22;3.63;;;;;;;;;;5107187;28;20027;-67
2021/08/10 09:51:15;;;;;;;16.55;5.20;;;;;;;;;;5111715;28;20127;-66
2021/08/10 09:53:42;;;;;;;8.77;3.72;;;;;;;;;;5112171;28;20043;-66
2021/08/10 09:56:08;;;;;;;9.73;3.67;;;;;;;;;;5113089;28;20098;-66
2021/08/10 09:58:51;;;;;;;9.88;3.47;;;;;;;;;;5112363;28;20426;-67
2021/08/10 10:01:29;;;;;;;6.90;3.13;;;;;;;;;;5111906;28;20012;-66
2021/08/10 10:04:06;;;;;;;7.22;3.42;;;;;;;;;;5110796;28;20087;-66
2021/08/10 10:06:32;;;;;;;7.82;3.00;;;;;;;;;;5112922;28;20011;-66
2021/08/10 10:08:57;;;;;;;6.20;3.10;;;;;;;;;;5112970;28;20466;-66
2021/08/10 10:11:22;;;;;;;10.63;3.72;;;;;;;;;;5112312;28;20023;-66
2021/08/10 10:13:47;;;;;;;9.27;3.97;;;;;;;;;;5093970;28;20024;-67
2021/08/10 10:16:13;;;;;;;11.37;4.00;;;;;;;;;;5112742;28;20053;-66
2021/08/10 10:18:39;;;;;;;7.77;2.70;;;;;;;;;;5112868;28;20273;-66
2021/08/10 10:21:04;;;;;;;6.32;3.78;;;;;;;;;;5110166;28;20257;-65
2021/08/10 10:23:30;;;;;;;16.20;4.65;;;;;;;;;;5112113;28;20076;-66
2021/08/10 10:25:59;;;;;;;8.52;3.30;;;;;;;;;;5112613;28;20019;-66
2021/08/10 10:28:25;;;;;;;6.78;3.72;;;;;;;;;;5111962;28;20045;-66
2021/08/10 10:30:51;;;;;;;9.63;3.72;;;;;;;;;;5112517;28;20023;-65
2021/08/10 10:33:16;;;;;;;10.80;3.45;;;;;;;;;;5111438;28;20068;-66
2021/08/10 10:35:42;;;;;;;7.88;3.10;;;;;;;;;;5111061;28;20697;-66
2021/08/10 10:38:08;;;;;;;9.00;3.10;;;;;;;;;;5109899;28;20464;-66
2021/08/10 10:40:33;;;;;;;11.05;3.47;;;;;;;;;;5112383;28;20015;-66
2021/08/10 10:42:59;;;;;;;6.13;3.03;;;;;;;;;;5111919;28;20016;-67
2021/08/10 10:45:40;;;;;;;4.82;2.88;;;;;;;;;;5111415;28;20027;-66
2021/08/10 10:48:24;;;;;;;8.05;3.05;;;;;;;;;;5111725;28;20450;-67
2021/08/10 10:51:08;;;;;;;7.50;3.70;;;;;;;;;;5112219;28;20756;-66
2021/08/10 10:53:33;;;;;;;6.72;3.35;;;;;;;;;;5111630;28;20392;-67
2021/08/10 10:55:59;;;;;;;6.03;3.22;;;;;;;;;;5104163;28;20019;-67
2021/08/10 10:58:24;;;;;;;9.02;3.45;;;;;;;;;;5111968;28;20051;-67
2021/08/10 11:01:08;;;;;;;7.95;3.22;;;;;;;;;;5111333;28;20051;-66
2021/08/10 11:03:33;;;;;;;6.88;3.53;;;;;;;;;;5091657;28;20020;-67
2021/08/10 11:06:18;;;;;;;4.95;2.80;;;;;;;;;;5099074;28;20080;-67
2021/08/10 11:08:43;;;;;;;10.27;4.20;;;;;;;;;;5111634;28;20118;-67
2021/08/10 11:11:29;;;;;;;6.65;3.00;;;;;;;;;;5111772;28;20445;-67
2021/08/10 11:13:54;;;;;;;8.05;3.33;;;;;;;;;;5111116;28;20347;-66
2021/08/10 11:16:19;;;;;;;12.20;3.20;;;;;;;;;;5111013;28;20151;-66
2021/08/10 11:18:44;;;;;;;5.90;2.97;;;;;;;;;;5111688;28;20288;-67
2021/08/10 11:21:09;;;;;;;14.82;3.10;;;;;;;;;;5110727;28;20308;-66
2021/08/10 11:23:35;;;;;;;11.15;3.65;;;;;;;;;;5110399;28;20023;-67
2021/08/10 11:26:01;;;;;;;5.63;2.78;;;;;;;;;;5111281;28;20491;-66
2021/08/10 11:28:30;;;;;;;10.30;3.17;;;;;;;;;;5110703;28;20102;-66
2021/08/10 11:31:02;;;;;;;5.05;3.47;;;;;;;;;;5110649;28;20269;-66
2021/08/10 11:33:34;;;;;;;7.38;3.03;;;;;;;;;;5108808;28;20027;-65
2021/08/10 11:36:14;;;;;;;5.05;3.17;;;;;;;;;;5110040;28;20409;-66
2021/08/10 11:38:52;;;;;;;11.32;3.47;;;;;;;;;;5109784;28;20028;-66
2021/08/10 11:41:37;;;;;;;5.85;3.08;;;;;;;;;;5092695;28;20098;-66
2021/08/10 11:44:04;;;;;;;7.30;3.50;;;;;;;;;;5110251;28;20027;-66
2021/08/10 11:46:33;;;;;;;8.93;3.38;;;;;;;;;;5111248;28;20023;-66
2021/08/10 11:49:00;;;;;;;9.30;3.53;;;;;;;;;;5110781;28;20023;-66
2021/08/10 11:51:26;;;;;;;8.25;3.25;;;;;;;;;;5111253;28;20054;-67
2021/08/10 11:53:53;;;;;;;8.98;3.75;;;;;;;;;;5110890;28;20038;-66
2021/08/10 11:56:22;;;;;;;4.82;2.90;;;;;;;;;;5108607;28;20024;-66
2021/08/10 11:58:47;;;;;;;6.30;3.17;;;;;;;;;;5109076;28;20039;-66
2021/08/10 12:01:13;;;;;;;7.03;3.43;;;;;;;;;;5110985;28;20412;-67
2021/08/10 12:03:39;;;;;;;7.07;3.03;;;;;;;;;;5105706;28;20016;-66
2021/08/10 12:06:04;;;;;;;6.47;3.22;;;;;;;;;;5101353;28;20359;-67
2021/08/10 12:08:29;;;;;;;6.43;2.45;;;;;;;;;;5107364;28;20095;-66
2021/08/10 12:10:55;;;;;;;8.45;3.42;;;;;;;;;;5106312;28;20055;-66
2021/08/10 12:13:21;;;;;;;7.07;2.50;;;;;;;;;;5110618;28;20111;-66
2021/08/10 12:15:47;;;;;;;7.07;3.20;;;;;;;;;;5108684;28;20525;-66
2021/08/10 12:18:13;;;;;;;7.40;2.67;;;;;;;;;;5090372;28;20099;-67
2021/08/10 12:20:39;;;;;;;5.65;2.53;;;;;;;;;;5106802;28;20380;-66
2021/08/10 12:23:08;;;;;;;7.70;2.67;;;;;;;;;;5109906;28;20019;-67
2021/08/10 12:25:33;;;;;;;8.95;2.88;;;;;;;;;;5109838;28;20031;-66
2021/08/10 12:28:00;;;;;;;10.30;2.88;;;;;;;;;;5110405;28;20033;-66
2021/08/10 12:30:26;;;;;;;10.57;3.55;;;;;;;;;;5110165;28;20030;-66
2021/08/10 12:32:51;;;;;;;5.20;2.95;;;;;;;;;;5109938;28;20072;-66
2021/08/10 12:35:21;;;;;;;4.95;2.70;;;;;;;;;;5109789;28;20447;-66
2021/08/10 12:37:46;;;;;;;8.85;2.33;;;;;;;;;;5109655;28;20031;-66
2021/08/10 12:40:15;;;;;;;7.28;3.45;;;;;;;;;;5110183;28;20027;-66
2021/08/10 12:42:40;;;;;;;6.63;2.85;;;;;;;;;;5109190;28;20027;-67
2021/08/10 12:45:06;;;;;;;9.93;3.17;;;;;;;;;;5110550;28;20123;-67
2021/08/10 12:47:37;;;;;;;8.82;3.78;;;;;;;;;;5109921;28;20100;-67
2021/08/10 12:50:20;;;;;;;6.22;3.25;;;;;;;;;;5111572;28;20076;-66
2021/08/10 12:52:45;;;;;;;6.53;3.17;;;;;;;;;;5095349;28;20030;-67
2021/08/10 12:55:11;;;;;;;8.73;2.70;;;;;;;;;;5113005;28;20023;-66
2021/08/10 12:57:36;;;;;;;8.98;2.60;;;;;;;;;;5113589;28;20343;-66
2021/08/10 13:00:21;;;;;;;5.60;2.97;;;;;;;;;;5114058;28;20508;-67
2021/08/10 13:02:48;;;;;;;5.75;3.03;;;;;;;;;;5112722;28;20147;-67
2021/08/10 13:05:14;;;;;;;6.15;3.53;;;;;;;;;;5113886;28;20390;-67
2021/08/10 13:07:41;;;;;;;6.95;3.33;;;;;;;;;;5113431;28;20019;-67
2021/08/10 13:10:07;;;;;;;8.18;3.75;;;;;;;;;;5113836;28;20031;-67
2021/08/10 13:12:32;;;;;;;10.05;4.35;;;;;;;;;;5109029;28;20024;-68
2021/08/10 13:15:08;;;;;;;6.68;2.97;;;;;;;;;;5105817;28;20559;-67
2021/08/10 13:17:42;;;;;;;6.25;3.08;;;;;;;;;;5114016;28;20434;-67
2021/08/10 13:20:12;;;;;;;4.72;2.83;;;;;;;;;;5113954;28;20020;-67
2021/08/10 13:22:41;;;;;;;9.52;3.50;;;;;;;;;;5112882;28;20012;-68
2021/08/10 13:25:07;;;;;;;8.68;3.10;;;;;;;;;;5109002;28;20474;-67
2021/08/10 13:27:32;;;;;;;5.97;3.13;;;;;;;;;;5107037;28;20020;-68
2021/08/10 13:29:57;;;;;;;6.00;2.85;;;;;;;;;;5109245;28;20112;-67
2021/08/10 13:32:24;;;;;;;6.03;2.72;;;;;;;;;;5113248;28;20027;-68
2021/08/10 13:34:51;;;;;;;7.18;3.10;;;;;;;;;;5113643;28;20057;-67
2021/08/10 13:37:16;;;;;;;5.57;2.45;;;;;;;;;;5113024;28;20059;-68
2021/08/10 13:39:41;;;;;;;4.77;2.97;;;;;;;;;;5112954;28;20062;-68
2021/08/10 13:42:07;;;;;;;8.00;3.40;;;;;;;;;;5112481;28;20016;-67
2021/08/10 13:44:32;;;;;;;10.18;3.30;;;;;;;;;;5110767;28;20019;-67
2021/08/10 13:46:57;;;;;;;7.77;3.10;;;;;;;;;;5092910;28;20020;-68
2021/08/10 13:49:22;;;;;;;9.40;3.50;;;;;;;;;;5094838;28;20324;-67
2021/08/10 13:51:47;;;;;;;5.63;3.33;;;;;;;;;;5102209;28;20027;-67
2021/08/10 13:54:13;;;;;;;9.25;3.28;;;;;;;;;;5112794;28;20530;-67
2021/08/10 13:56:38;;;;;;;5.60;3.15;;;;;;;;;;5113074;28;20019;-67
2021/08/10 13:59:03;;;;;;;5.95;3.08;;;;;;;;;;5113133;28;20020;-67
2021/08/10 14:01:37;;;;;;;6.35;3.67;;;;;;;;;;5112490;28;20028;-67
2021/08/10 14:04:03;;;;;;;6.43;3.25;;;;;;;;;;5112562;28;20358;-67
2021/08/10 14:06:28;;;;;;;4.97;2.70;;;;;;;;;;5093901;28;20019;-67
2021/08/10 14:08:53;;;;;;;7.30;3.00;;;;;;;;;;5112818;28;20027;-67
2021/08/10 14:11:19;;;;;;;6.55;3.15;;;;;;;;;;5112551;28;20027;-67
2021/08/10 14:13:44;;;;;;;8.82;3.88;;;;;;;;;;5106971;28;20039;-68
2021/08/10 14:16:10;;;;;;;8.60;3.60;;;;;;;;;;5112320;28;20023;-67
2021/08/10 14:18:35;;;;;;;6.40;3.17;;;;;;;;;;5112309;28;20015;-68
2021/08/10 14:21:00;;;;;;;4.83;2.87;;;;;;;;;;5112115;28;20096;-68
2021/08/10 14:23:25;;;;;;;6.23;2.97;;;;;;;;;;5111546;28;20258;-67
2021/08/10 14:25:50;;;;;;;6.27;3.17;;;;;;;;;;5107851;28;20269;-67
2021/08/10 14:28:16;;;;;;;5.50;2.60;;;;;;;;;;5103736;28;20265;-67
2021/08/10 14:30:41;;;;;;;8.53;3.27;;;;;;;;;;5112062;28;20402;-67
2021/08/10 14:33:06;;;;;;;5.20;3.00;;;;;;;;;;5111833;28;20706;-67
2021/08/10 14:35:31;;;;;;;12.30;3.50;;;;;;;;;;5160616;22;20298;-67